Terminal Aerodrome Forecast
Issued by NWS Grand Junction, CO

Home | Current Version | Previous Version | Text Only | Print | Product List | Glossary On
Versions: 1 2 3 4 5 6 7 8 9 10 11 12 13 14 15 16 17 18 19 20 21 22 23 24 25 26 27 28 29 30 31 32
000
FTUS45 KGJT 010520
TAFGJT
TAF
KGJT 010520Z 0106/0206 08005KT P6SM SCT090 BKN110
     FM010900 11007KT P6SM SCT080 BKN100
     FM011200 16008KT P6SM VCSH SCT060 BKN090
     FM011600 32009KT P6SM -RA SCT050 OVC070
     FM020100 02006KT P6SM VCSH SCT070 BKN100=

USA.gov is the U.S. government's official web portal to all federal, state and local government web resources and services.